createdAt,value
2023-04-18T00:01:44.615Z,7.80
2023-04-18T00:04:11.904Z,7.10
2023-04-18T00:06:39.192Z,8.50
2023-04-18T00:09:05.828Z,7.50
2023-04-18T00:11:32.535Z,8.10
2023-04-18T00:13:59.445Z,7.80
2023-04-18T00:16:27.210Z,8.30
2023-04-18T00:18:54.244Z,9.00
2023-04-18T00:21:22.541Z,8.40
2023-04-18T00:23:49.219Z,8.70
2023-04-18T00:26:15.862Z,10.00
2023-04-18T00:28:42.600Z,10.00
2023-04-18T00:31:09.302Z,8.90
2023-04-18T00:33:36.020Z,7.70
2023-04-18T00:36:02.530Z,9.70
2023-04-18T00:38:29.075Z,11.90
2023-04-18T00:40:55.763Z,8.40
2023-04-18T00:43:24.096Z,10.10
2023-04-18T00:45:50.692Z,9.40
2023-04-18T00:48:18.402Z,8.30
2023-04-18T00:50:45.426Z,10.40
2023-04-18T00:53:12.063Z,8.00
2023-04-18T00:55:39.166Z,8.80
2023-04-18T00:58:06.347Z,8.30
2023-04-18T01:00:35.729Z,9.20
2023-04-18T01:03:02.693Z,8.70
2023-04-18T01:05:29.839Z,9.00
2023-04-18T01:08:00.859Z,9.60
2023-04-18T01:10:28.483Z,9.50
2023-04-18T01:13:11.762Z,12.20
2023-04-18T01:15:40.779Z,9.80
2023-04-18T01:18:08.902Z,9.10
2023-04-18T01:20:38.140Z,9.10
2023-04-18T01:23:05.695Z,9.80
2023-04-18T01:25:33.029Z,10.20
2023-04-18T01:28:00.160Z,9.00
2023-04-18T01:30:26.869Z,10.00
2023-04-18T01:32:53.481Z,9.60
2023-04-18T01:35:20.423Z,10.60
2023-04-18T01:37:47.420Z,10.80
2023-04-18T01:40:14.358Z,10.10
2023-04-18T01:42:40.984Z,10.40
2023-04-18T01:45:08.338Z,9.20
2023-04-18T01:47:35.246Z,10.60
2023-04-18T01:50:02.548Z,10.40
2023-04-18T01:52:29.058Z,11.60
2023-04-18T01:54:55.980Z,11.70
2023-04-18T01:57:22.523Z,11.60
2023-04-18T01:59:49.052Z,12.40
2023-04-18T02:02:15.794Z,12.10
2023-04-18T02:04:42.658Z,13.40
2023-04-18T02:07:09.184Z,13.20
2023-04-18T02:09:36.140Z,14.90
2023-04-18T02:12:03.180Z,13.70
2023-04-18T02:14:31.074Z,13.30
2023-04-18T02:16:58.911Z,12.70
2023-04-18T02:19:25.743Z,13.20
2023-04-18T02:21:52.240Z,12.80
2023-04-18T02:24:19.054Z,13.70
2023-04-18T02:26:46.013Z,13.00
2023-04-18T02:29:12.837Z,14.10
2023-04-18T02:31:40.905Z,13.60
2023-04-18T02:34:08.368Z,13.80
2023-04-18T02:36:34.935Z,13.30
2023-04-18T02:39:01.585Z,13.40
2023-04-18T02:41:28.392Z,15.50
2023-04-18T02:43:55.157Z,14.30
2023-04-18T02:46:22.012Z,15.60
2023-04-18T02:48:48.814Z,15.10
2023-04-18T02:51:15.706Z,15.00
2023-04-18T02:53:42.405Z,14.40
2023-04-18T02:56:09.228Z,13.90
2023-04-18T02:58:36.404Z,14.50
2023-04-18T03:01:03.274Z,14.50
2023-04-18T03:03:30.201Z,14.70
2023-04-18T03:05:57.103Z,14.30
2023-04-18T03:08:23.958Z,15.90
2023-04-18T03:10:50.532Z,14.40
2023-04-18T03:13:17.222Z,15.60
2023-04-18T03:15:43.899Z,13.30
2023-04-18T03:18:12.358Z,14.60
2023-04-18T03:20:39.103Z,14.80
2023-04-18T03:23:05.761Z,14.80
2023-04-18T03:25:32.564Z,15.20
2023-04-18T03:27:59.304Z,15.40
2023-04-18T03:30:26.148Z,15.20
2023-04-18T03:32:53.719Z,16.00
2023-04-18T03:35:20.819Z,14.60
2023-04-18T03:37:47.491Z,17.50
2023-04-18T03:40:14.124Z,17.10
2023-04-18T03:42:40.817Z,15.30
2023-04-18T03:45:08.055Z,14.80
2023-04-18T03:47:34.802Z,16.70
2023-04-18T03:50:01.504Z,17.40
2023-04-18T03:52:29.729Z,16.90
2023-04-18T03:54:56.485Z,16.00
2023-04-18T03:57:22.933Z,17.30
2023-04-18T03:59:49.601Z,16.30
2023-04-18T04:02:16.772Z,15.90
2023-04-18T04:04:43.670Z,15.40
2023-04-18T04:07:10.810Z,14.00
2023-04-18T04:09:37.443Z,16.50
2023-04-18T04:12:04.294Z,14.70
2023-04-18T04:14:30.896Z,14.30
2023-04-18T04:16:57.803Z,14.70
2023-04-18T04:19:24.896Z,13.40
2023-04-18T04:21:51.611Z,15.60
2023-04-18T04:24:20.440Z,13.60
2023-04-18T04:26:48.656Z,16.20
2023-04-18T04:29:16.363Z,13.80
2023-04-18T04:31:43.127Z,13.70
2023-04-18T04:34:09.803Z,15.00
2023-04-18T04:36:36.784Z,13.30
2023-04-18T04:39:04.227Z,13.40
2023-04-18T04:41:31.597Z,18.10
2023-04-18T04:43:59.564Z,13.80
2023-04-18T04:46:30.246Z,13.00
2023-04-18T04:48:57.425Z,13.70
2023-04-18T04:51:24.826Z,15.40
2023-04-18T04:53:51.704Z,14.40
2023-04-18T04:56:21.481Z,14.40
2023-04-18T04:58:48.319Z,14.40
2023-04-18T05:01:16.722Z,13.80
2023-04-18T05:03:43.945Z,11.60
2023-04-18T05:06:10.697Z,13.10
2023-04-18T05:08:37.346Z,13.40
2023-04-18T05:11:04.072Z,13.30
2023-04-18T05:13:30.527Z,13.20
2023-04-18T05:15:59.240Z,12.60
2023-04-18T05:18:26.049Z,12.90
2023-04-18T05:20:52.868Z,14.20
2023-04-18T05:23:19.750Z,11.30
2023-04-18T05:25:46.505Z,13.30
2023-04-18T05:28:13.315Z,13.60
2023-04-18T05:30:40.283Z,13.90
2023-04-18T05:33:07.390Z,13.70
2023-04-18T05:35:34.263Z,13.70
2023-04-18T05:38:00.918Z,12.00
2023-04-18T05:40:28.220Z,12.70
2023-04-18T05:42:54.857Z,11.90
2023-04-18T05:45:21.548Z,13.50
2023-04-18T05:47:48.545Z,11.30
2023-04-18T05:50:15.406Z,13.10
2023-04-18T05:52:41.841Z,13.20
2023-04-18T05:55:09.293Z,12.20
2023-04-18T05:57:36.208Z,12.20
2023-04-18T06:00:06.753Z,13.10
2023-04-18T06:02:33.509Z,12.20
2023-04-18T06:05:01.400Z,13.30
2023-04-18T06:07:28.456Z,12.60
2023-04-18T06:09:56.597Z,14.50
2023-04-18T06:12:23.336Z,13.40
2023-04-18T06:14:50.925Z,13.10
2023-04-18T06:17:17.712Z,13.40
2023-04-18T06:19:44.680Z,14.70
2023-04-18T06:22:11.384Z,14.00
2023-04-18T06:24:38.477Z,14.60
2023-04-18T06:27:05.665Z,13.50
2023-04-18T06:29:33.250Z,13.60
2023-04-18T06:32:00.135Z,14.40
2023-04-18T06:34:26.796Z,13.90
2023-04-18T06:36:53.524Z,12.20
2023-04-18T06:39:20.448Z,12.50
2023-04-18T06:41:48.488Z,13.50
2023-04-18T06:44:15.640Z,12.80
2023-04-18T06:46:42.743Z,13.90
2023-04-18T06:49:09.982Z,12.20
2023-04-18T06:51:36.803Z,11.80
2023-04-18T06:54:03.789Z,13.10
2023-04-18T06:56:30.745Z,12.40
2023-04-18T06:58:58.173Z,13.30
2023-04-18T07:01:25.212Z,13.70
2023-04-18T07:03:52.087Z,12.70
2023-04-18T07:06:18.833Z,13.30
2023-04-18T07:08:45.508Z,12.60
2023-04-18T07:11:13.278Z,14.40
2023-04-18T07:13:40.079Z,13.40
2023-04-18T07:16:07.492Z,13.10
2023-04-18T07:18:38.040Z,12.60
2023-04-18T07:21:09.079Z,12.20
2023-04-18T07:23:36.164Z,13.70
2023-04-18T07:26:08.251Z,13.40
2023-04-18T07:28:34.858Z,13.30
2023-04-18T07:31:03.022Z,11.70
2023-04-18T07:33:33.530Z,12.30
2023-04-18T07:36:01.528Z,11.70
2023-04-18T07:38:28.529Z,13.80
2023-04-18T07:40:59.158Z,12.80
2023-04-18T07:43:26.358Z,11.50
2023-04-18T07:45:53.388Z,11.90
2023-04-18T07:48:25.084Z,12.90
2023-04-18T07:50:52.053Z,12.10
2023-04-18T07:53:18.878Z,11.80
2023-04-18T07:55:46.513Z,11.70
2023-04-18T07:58:13.708Z,11.50
2023-04-18T08:00:42.522Z,11.70
2023-04-18T08:03:13.059Z,12.10
2023-04-18T08:05:40.539Z,11.40
2023-04-18T08:08:08.906Z,10.50
2023-04-18T08:10:35.896Z,12.00
2023-04-18T08:13:03.374Z,10.80
2023-04-18T08:15:32.265Z,12.10
2023-04-18T08:17:59.875Z,10.30
2023-04-18T08:20:26.745Z,11.20
2023-04-18T08:23:05.623Z,10.60
2023-04-18T08:25:33.289Z,9.00
2023-04-18T08:28:00.097Z,10.50
2023-04-18T08:30:27.028Z,8.40
2023-04-18T08:32:53.834Z,9.30
2023-04-18T08:35:20.817Z,9.00
2023-04-18T08:37:47.671Z,8.90
2023-04-18T08:40:14.618Z,7.80
2023-04-18T08:42:44.300Z,9.70
2023-04-18T08:45:13.950Z,10.00
2023-04-18T08:47:41.575Z,9.30
2023-04-18T08:50:09.705Z,8.80
2023-04-18T08:52:38.845Z,8.50
2023-04-18T08:55:06.298Z,9.00
2023-04-18T08:57:33.462Z,9.10
2023-04-18T09:00:11.114Z,8.10
2023-04-18T09:02:42.448Z,7.60
2023-04-18T09:05:16.564Z,7.70
2023-04-18T09:07:44.160Z,7.80
2023-04-18T09:10:12.460Z,7.00
2023-04-18T09:12:52.122Z,8.70
2023-04-18T09:15:23.411Z,7.20
2023-04-18T09:17:54.296Z,7.80
2023-04-18T09:20:37.559Z,7.20
2023-04-18T09:23:14.387Z,6.60
2023-04-18T09:25:48.896Z,7.70
2023-04-18T09:28:23.464Z,6.70
2023-04-18T09:30:54.217Z,7.40
2023-04-18T09:33:33.795Z,6.40
2023-04-18T09:36:37.240Z,7.90
2023-04-18T09:39:04.148Z,8.00
2023-04-18T09:41:32.520Z,8.10
2023-04-18T09:44:14.663Z,7.00
2023-04-18T09:46:44.487Z,6.60
2023-04-18T09:49:12.867Z,8.20
2023-04-18T09:51:42.032Z,7.70
2023-04-18T09:54:10.859Z,8.70
2023-04-18T09:56:40.967Z,6.70
2023-04-18T09:59:09.187Z,5.80
2023-04-18T10:01:36.537Z,5.90
2023-04-18T10:04:06.465Z,5.90
2023-04-18T10:06:41.849Z,6.90
2023-04-18T10:09:09.343Z,7.60
2023-04-18T10:11:36.441Z,7.20
2023-04-18T10:14:06.844Z,6.40
2023-04-18T10:16:34.945Z,6.40
2023-04-18T10:19:27.197Z,6.50
2023-04-18T10:22:01.472Z,6.40
2023-04-18T10:24:49.994Z,5.40
2023-04-18T10:27:17.840Z,5.80
2023-04-18T10:29:52.347Z,5.60
2023-04-18T10:32:22.115Z,6.80
2023-04-18T10:34:53.847Z,5.70
2023-04-18T10:37:20.613Z,6.30
2023-04-18T10:40:08.433Z,5.80
2023-04-18T10:42:47.323Z,5.90
2023-04-18T10:45:24.792Z,4.90
2023-04-18T10:48:11.474Z,5.60
2023-04-18T10:51:12.815Z,4.40
2023-04-18T10:53:40.548Z,5.40
2023-04-18T10:56:09.480Z,5.00
2023-04-18T10:58:36.869Z,6.80
2023-04-18T11:01:04.865Z,5.20
2023-04-18T11:03:34.803Z,5.40
2023-04-18T11:06:04.647Z,5.40
2023-04-18T11:08:31.830Z,7.00
2023-04-18T11:11:03.480Z,5.50
2023-04-18T11:13:31.935Z,5.60
2023-04-18T11:15:58.763Z,5.50
2023-04-18T11:18:25.584Z,5.20
2023-04-18T11:20:52.455Z,5.20
2023-04-18T11:23:25.463Z,5.30
2023-04-18T11:25:56.197Z,7.30
2023-04-18T11:28:24.917Z,5.40
2023-04-18T11:30:51.634Z,7.60
2023-04-18T11:33:18.321Z,5.90
2023-04-18T11:35:46.028Z,7.30
2023-04-18T11:38:14.489Z,5.70
2023-04-18T11:40:50.815Z,5.70
2023-04-18T11:43:22.904Z,5.00
2023-04-18T11:45:56.878Z,5.50
2023-04-18T11:48:24.130Z,5.20
2023-04-18T11:50:51.085Z,5.10
2023-04-18T11:53:37.825Z,5.10
2023-04-18T11:56:05.733Z,5.80
2023-04-18T11:58:33.841Z,4.70
2023-04-18T12:01:16.677Z,7.70
2023-04-18T12:03:44.943Z,5.50
2023-04-18T12:06:12.095Z,6.10
2023-04-18T12:08:38.586Z,6.00
2023-04-18T12:11:05.626Z,4.50
2023-04-18T12:13:32.916Z,5.50
2023-04-18T12:16:02.485Z,6.00
2023-04-18T12:18:29.883Z,5.90
2023-04-18T12:20:58.587Z,5.60
2023-04-18T12:23:51.771Z,5.50
2023-04-18T12:26:18.530Z,6.40
2023-04-18T12:28:46.000Z,5.00
2023-04-18T12:31:12.796Z,5.70
2023-04-18T12:33:39.581Z,6.80
2023-04-18T12:36:08.226Z,5.30
2023-04-18T12:38:35.398Z,5.10
2023-04-18T12:41:01.996Z,3.90
2023-04-18T12:43:28.665Z,4.90
2023-04-18T12:45:55.159Z,5.10
2023-04-18T12:48:21.748Z,4.80
2023-04-18T12:50:48.427Z,5.00
2023-04-18T12:53:14.890Z,4.70
2023-04-18T12:55:41.486Z,3.30
2023-04-18T12:58:08.106Z,5.80
2023-04-18T13:00:34.844Z,4.50
2023-04-18T13:03:01.646Z,4.40
2023-04-18T13:05:33.124Z,4.30
2023-04-18T13:10:31.084Z,4.10
2023-04-18T13:12:57.474Z,4.50
2023-04-18T13:15:24.092Z,5.60
2023-04-18T13:17:50.933Z,4.40
2023-04-18T13:20:17.578Z,4.50
2023-04-18T13:22:45.178Z,4.10
2023-04-18T13:25:11.776Z,4.50
2023-04-18T13:27:41.721Z,4.80
2023-04-18T13:30:10.648Z,3.90
2023-04-18T13:32:39.077Z,5.00
2023-04-18T13:35:08.240Z,5.20
2023-04-18T13:37:34.790Z,3.50
2023-04-18T13:40:01.548Z,3.90
2023-04-18T13:42:28.084Z,3.90
2023-04-18T13:44:54.782Z,4.00
2023-04-18T13:47:21.419Z,4.60
2023-04-18T13:49:47.943Z,3.90
2023-04-18T13:52:14.718Z,3.40
2023-04-18T13:54:41.476Z,3.70
2023-04-18T13:57:11.604Z,5.40
2023-04-18T13:59:40.504Z,4.30
2023-04-18T14:02:09.028Z,3.60
2023-04-18T14:04:36.579Z,4.50
2023-04-18T14:07:06.142Z,4.20
2023-04-18T14:09:32.785Z,3.80
2023-04-18T14:11:59.487Z,4.10
2023-04-18T14:14:26.027Z,3.50
2023-04-18T14:16:53.748Z,3.00
2023-04-18T14:19:20.526Z,3.20
2023-04-18T14:21:47.959Z,3.10
2023-04-18T14:24:14.889Z,4.20
2023-04-18T14:26:41.631Z,3.10
2023-04-18T14:29:08.321Z,3.20
2023-04-18T14:31:35.363Z,4.20
2023-04-18T14:34:02.036Z,3.50
2023-04-18T14:36:28.724Z,2.80
2023-04-18T14:38:55.379Z,3.60
2023-04-18T14:41:22.280Z,3.20
2023-04-18T14:43:48.899Z,3.20
2023-04-18T14:46:18.695Z,4.30
2023-04-18T14:48:46.913Z,4.10
2023-04-18T14:51:15.584Z,3.50
2023-04-18T14:53:42.369Z,3.20
2023-04-18T14:56:09.381Z,4.20
2023-04-18T14:58:36.220Z,4.30
2023-04-18T15:01:04.147Z,4.70
2023-04-18T15:03:31.320Z,4.60
2023-04-18T15:05:58.328Z,3.40
2023-04-18T15:08:25.188Z,3.70
2023-04-18T15:10:52.019Z,3.40
2023-04-18T15:13:18.692Z,3.70
2023-04-18T15:15:51.744Z,3.80
2023-04-18T15:18:18.484Z,4.70
2023-04-18T15:20:45.091Z,3.50
2023-04-18T15:23:13.719Z,4.40
2023-04-18T15:25:41.669Z,6.00
2023-04-18T15:28:08.454Z,3.80
2023-04-18T15:30:35.201Z,5.20
2023-04-18T15:33:02.421Z,4.80
2023-04-18T15:35:29.254Z,4.20
2023-04-18T15:37:57.387Z,5.40
2023-04-18T15:40:24.215Z,6.50
2023-04-18T15:42:53.433Z,12.70
2023-04-18T15:45:21.269Z,7.80
2023-04-18T15:47:48.452Z,6.20
2023-04-18T15:50:16.248Z,5.70
2023-04-18T15:52:43.901Z,6.80
2023-04-18T15:55:12.968Z,6.80
2023-04-18T15:57:40.017Z,8.60
2023-04-18T16:00:15.738Z,6.00
2023-04-18T16:02:43.780Z,6.90
2023-04-18T16:05:12.262Z,7.80
2023-04-18T16:07:42.648Z,9.00
2023-04-18T16:10:10.665Z,7.20
2023-04-18T16:12:39.040Z,6.80
2023-04-18T16:15:08.260Z,6.90
2023-04-18T16:17:36.703Z,6.80
2023-04-18T16:20:03.931Z,7.40
2023-04-18T16:22:30.764Z,6.70
2023-04-18T16:24:57.617Z,5.50
2023-04-18T16:27:24.301Z,7.40
2023-04-18T16:29:50.982Z,7.50
2023-04-18T16:32:17.761Z,7.70
2023-04-18T16:34:44.574Z,8.00
2023-04-18T16:37:11.296Z,7.90
2023-04-18T16:39:38.046Z,7.00
2023-04-18T16:42:04.965Z,8.60
2023-04-18T16:44:32.548Z,8.30
2023-04-18T16:46:59.343Z,7.50
2023-04-18T16:49:26.173Z,8.70
2023-04-18T16:51:52.767Z,9.30
2023-04-18T16:54:19.463Z,9.20
2023-04-18T16:56:46.438Z,8.50
2023-04-18T16:59:13.003Z,7.90
2023-04-18T17:01:39.681Z,8.70
2023-04-18T17:04:06.737Z,8.00
2023-04-18T17:06:33.320Z,14.30
2023-04-18T17:08:59.994Z,9.20
2023-04-18T17:11:26.757Z,14.70
2023-04-18T17:13:53.703Z,10.70
2023-04-18T17:16:20.600Z,9.80
2023-04-18T17:18:47.253Z,10.40
2023-04-18T17:21:14.021Z,9.30
2023-04-18T17:23:42.473Z,9.00
2023-04-18T17:26:09.565Z,8.30
2023-04-18T17:28:36.449Z,8.30
2023-04-18T17:31:03.220Z,8.10
2023-04-18T17:33:30.318Z,8.20
2023-04-18T17:35:57.146Z,8.70
2023-04-18T17:38:23.746Z,7.80
2023-04-18T17:40:58.500Z,14.50
2023-04-18T17:43:25.113Z,8.30
2023-04-18T17:45:52.118Z,9.70
2023-04-18T17:48:18.780Z,9.70
2023-04-18T17:50:45.616Z,8.90
2023-04-18T17:53:12.326Z,8.30
2023-04-18T17:55:40.532Z,9.20
2023-04-18T17:58:07.205Z,8.80
2023-04-18T18:00:33.926Z,8.00
2023-04-18T18:03:01.614Z,9.00
2023-04-18T18:05:28.464Z,9.00
2023-04-18T18:07:56.194Z,9.50
2023-04-18T18:10:23.803Z,10.20
2023-04-18T18:12:50.860Z,9.90
2023-04-18T18:15:18.326Z,11.30
2023-04-18T18:17:44.846Z,10.70
2023-04-18T18:20:11.694Z,10.30
2023-04-18T18:22:38.295Z,10.10
2023-04-18T18:25:08.099Z,10.90
2023-04-18T18:27:34.880Z,11.90
2023-04-18T18:30:01.640Z,8.90
2023-04-18T18:32:28.452Z,10.70
2023-04-18T18:34:55.004Z,10.40
2023-04-18T18:37:23.215Z,10.70
2023-04-18T18:39:50.010Z,10.80
2023-04-18T18:42:16.675Z,11.50
2023-04-18T18:44:43.476Z,10.40
2023-04-18T18:47:10.110Z,11.00
2023-04-18T18:49:36.728Z,10.60
2023-04-18T18:52:05.307Z,12.50
2023-04-18T18:54:32.110Z,10.50
2023-04-18T18:57:00.200Z,10.70
2023-04-18T18:59:27.137Z,11.50
2023-04-18T19:01:53.655Z,11.80
2023-04-18T19:04:20.512Z,9.90
2023-04-18T19:06:47.189Z,9.90
2023-04-18T19:09:14.048Z,9.90
2023-04-18T19:11:40.795Z,11.20
2023-04-18T19:14:07.210Z,9.80
2023-04-18T19:16:35.874Z,10.30
2023-04-18T19:19:02.480Z,7.90
2023-04-18T19:21:29.320Z,9.90
2023-04-18T19:23:55.958Z,8.50
2023-04-18T19:26:23.035Z,8.20
2023-04-18T19:28:50.027Z,8.40
2023-04-18T19:31:16.713Z,8.40
2023-04-18T19:33:43.511Z,11.90
2023-04-18T19:36:10.271Z,8.60
2023-04-18T19:38:37.235Z,9.60
2023-04-18T19:41:03.789Z,7.20
2023-04-18T19:43:30.262Z,7.60
2023-04-18T19:45:56.986Z,6.00
2023-04-18T19:48:23.880Z,5.60
2023-04-18T19:50:51.144Z,5.10
2023-04-18T19:53:18.974Z,6.40
2023-04-18T19:55:46.208Z,5.40
2023-04-18T19:58:33.561Z,6.90
2023-04-18T20:01:00.552Z,6.40
2023-04-18T20:03:27.914Z,5.50
2023-04-18T20:05:54.973Z,6.30
2023-04-18T20:08:21.974Z,6.50
2023-04-18T20:10:48.555Z,5.60
2023-04-18T20:13:15.444Z,6.20
2023-04-18T20:15:42.350Z,7.30
2023-04-18T20:18:09.150Z,6.00
2023-04-18T20:20:35.822Z,11.00
2023-04-18T20:23:03.322Z,6.90
2023-04-18T20:25:30.052Z,6.10
2023-04-18T20:27:56.870Z,5.80
2023-04-18T20:30:23.593Z,5.50
2023-04-18T20:32:50.362Z,5.80
2023-04-18T20:35:17.112Z,4.60
2023-04-18T20:37:44.628Z,6.00
2023-04-18T20:40:11.661Z,4.20
2023-04-18T20:42:38.875Z,5.40
2023-04-18T20:45:11.682Z,6.00
2023-04-18T20:47:41.307Z,5.90
2023-04-18T20:50:08.773Z,4.70
2023-04-18T20:52:35.335Z,6.10
2023-04-18T20:55:01.925Z,5.80
2023-04-18T20:57:28.991Z,4.40
2023-04-18T20:59:58.486Z,6.00
2023-04-18T21:02:26.298Z,4.40
2023-04-18T21:04:53.036Z,4.50
2023-04-18T21:07:19.705Z,5.90
2023-04-18T21:09:46.423Z,6.30
2023-04-18T21:12:13.181Z,6.60
2023-04-18T21:14:40.014Z,5.50
2023-04-18T21:17:06.536Z,10.20
2023-04-18T21:19:33.198Z,4.70
2023-04-18T21:21:59.826Z,5.30
2023-04-18T21:24:26.490Z,5.10
2023-04-18T21:26:53.152Z,5.80
2023-04-18T21:29:21.596Z,5.80
2023-04-18T21:31:50.119Z,4.10
2023-04-18T21:34:16.800Z,4.00
2023-04-18T21:36:43.998Z,4.10
2023-04-18T21:39:10.482Z,4.90
2023-04-18T21:41:36.998Z,4.80
2023-04-18T21:44:03.640Z,5.20
2023-04-18T21:46:30.444Z,5.20
2023-04-18T21:48:57.127Z,5.40
2023-04-18T21:51:23.910Z,5.00
2023-04-18T21:53:50.738Z,5.40
2023-04-18T21:56:17.453Z,6.00
2023-04-18T21:58:44.007Z,5.20
2023-04-18T22:01:10.633Z,7.20
2023-04-18T22:03:37.597Z,6.50
2023-04-18T22:06:04.437Z,5.90
2023-04-18T22:08:31.015Z,5.70
2023-04-18T22:10:58.917Z,5.30
2023-04-18T22:13:30.089Z,6.70
2023-04-18T22:15:58.158Z,12.90
2023-04-18T22:18:25.366Z,4.90
2023-04-18T22:20:53.679Z,5.70
2023-04-18T22:23:20.437Z,6.80
2023-04-18T22:25:46.988Z,5.50
2023-04-18T22:28:13.890Z,6.30
2023-04-18T22:30:40.467Z,5.60
2023-04-18T22:33:07.036Z,4.60
2023-04-18T22:35:33.950Z,7.20
2023-04-18T22:38:00.497Z,6.30
2023-04-18T22:40:27.148Z,6.70
2023-04-18T22:42:54.530Z,6.70
2023-04-18T22:45:21.161Z,5.80
2023-04-18T22:47:48.112Z,6.60
2023-04-18T22:50:15.214Z,6.50
2023-04-18T22:52:41.997Z,6.50
2023-04-18T22:55:09.534Z,6.90
2023-04-18T22:57:36.168Z,6.30
2023-04-18T23:00:05.050Z,6.70
2023-04-18T23:02:31.704Z,6.40
2023-04-18T23:04:59.661Z,5.90
2023-04-18T23:07:26.310Z,7.30
2023-04-18T23:09:52.935Z,7.00
2023-04-18T23:12:19.867Z,7.40
2023-04-18T23:14:46.400Z,6.10
2023-04-18T23:17:13.036Z,7.10
2023-04-18T23:19:39.940Z,7.90
2023-04-18T23:22:06.454Z,5.50
2023-04-18T23:24:33.036Z,7.90
2023-04-18T23:26:59.686Z,6.10
2023-04-18T23:29:26.784Z,5.80
2023-04-18T23:31:53.343Z,6.60
2023-04-18T23:34:22.421Z,5.80
2023-04-18T23:36:48.910Z,7.00
2023-04-18T23:39:17.478Z,7.10
2023-04-18T23:41:44.348Z,4.30
2023-04-18T23:44:11.207Z,5.10
2023-04-18T23:46:37.860Z,5.40
2023-04-18T23:49:04.461Z,5.10
2023-04-18T23:51:31.103Z,5.80
2023-04-18T23:53:57.720Z,5.10
2023-04-18T23:56:24.399Z,6.80
2023-04-18T23:58:51.010Z,5.00
